This is the latest recevied weather packets stored in our database for station/object IA5KRO-13. If no packets are shown the sender has not sent any weather packets the latest 10 day(s).
| Time | Temp. | Humidity | Pressure | Rain* | Wind** | Luminosity | Snow |
|---|---|---|---|---|---|---|---|
| 1778035213 | 16.11° C | 93% | 1017.3 hPa | 0 mm | - | - | - |
| 1778034910 | 16.11° C | 94% | 1017.3 hPa | 0 mm | - | - | - |
| 1778034622 | 16.11° C | 94% | 1017.3 hPa | 0 mm | - | - | - |
| 1778034311 | 16.11° C | 94% | 1017.3 hPa | 0 mm | - | - | - |
| 1778034013 | 16.11° C | 94% | 1017.3 hPa | 0 mm | - | - | - |
| 1778033713 | 16.11° C | 95% | 1017.3 hPa | 0 mm | - | - | - |
| 1778033414 | 16.11° C | 95% | 1017.3 hPa | 0.25 mm | - | - | - |
| 1778033110 | 17.22° C | 94% | 1017.3 hPa | 0.25 mm | - | - | - |
| 1778032833 | 17.22° C | 94% | 1017.3 hPa | 0.25 mm | - | - | - |
| 1778032510 | 17.22° C | 92% | 1017.3 hPa | 0.76 mm | - | - | - |
| 1778032213 | 16.11° C | 95% | 1017.3 hPa | 0.76 mm | - | - | - |
| 1778031912 | 16.11° C | 96% | 1017.3 hPa | 0.25 mm | - | - | - |
| 1778031613 | 16.11° C | 96% | 1017.3 hPa | 0.25 mm | - | - | - |
| 1778031309 | 16.11° C | 96% | 1017.3 hPa | 1.02 mm | - | - | - |
| 1778031023 | 16.11° C | 96% | 1017.3 hPa | 1.02 mm | - | - | - |
| 1778030710 | 16.11° C | 96% | 1017.3 hPa | 1.02 mm | - | - | - |
| 1778030413 | 16.11° C | 97% | 1017.6 hPa | 2.29 mm | - | - | - |
| 1778030112 | 16.11° C | 97% | 1017.6 hPa | 3.3 mm | - | - | - |
| 1778029814 | 16.11° C | 96% | 1018 hPa | 2.54 mm | - | - | - |
| 1778029510 | 16.11° C | 95% | 1018 hPa | 2.29 mm | - | - | - |
| 1778029233 | 16.11° C | 97% | 1018 hPa | 3.56 mm | - | - | - |
| 1778028910 | 17.22° C | 97% | 1018 hPa | 3.3 mm | - | - | - |
| 1778028613 | 17.22° C | 94% | 1018 hPa | 1.02 mm | - | - | - |
| 1778028313 | 17.22° C | 93% | 1018 hPa | 0 mm | - | - | - |
| 1778027709 | 17.22° C | 94% | 1018.3 hPa | 0.25 mm | - | - | - |
* Rain latest hour (hover to see other rain measurements)
** Current wind speed in m/s (hover to see current wind gust speed)